Wellston, Michigan
Current Conditions -  °F | °C
As of 10:35 AM on Sunday 28 Dec 2014 (Local Time) from KMBL Reporting Station
Overcast Overcast  
Wind Chill: 18°   Ceiling: 2100
Heat Index: 28°   Visibility: 10mi
Dew Point: 19°   Wind: 12mph
Humidity: 69%   Direction: 270°W
Pressure: 30.11"   Gusts: NA
Location:  44.22°N, 85.96°W
Report Text: KMBL 281535Z AUTO 27010KT 10SM OVC021 M02/M07 A3011 RMK AO1
Loading
Personal Weather Stations






























Interactive Weather Map New forecast layout! Learn more

10-Day Weather Forecast

Advertisements
Track Severe Weather on mobile